createdAt,value
2018-05-24T00:07:12.787Z,1014.24
2018-05-24T00:17:12.761Z,1014.23
2018-05-24T00:27:12.745Z,1014.24
2018-05-24T00:37:12.824Z,1014.19
2018-05-24T00:47:12.768Z,1014.08
2018-05-24T00:57:12.644Z,1014.07
2018-05-24T01:17:12.748Z,1014.01
2018-05-24T01:27:12.720Z,1013.93
2018-05-24T01:37:12.663Z,1013.91
2018-05-24T01:47:12.719Z,1013.85
2018-05-24T01:57:12.696Z,1013.82
2018-05-24T02:07:12.648Z,1013.68
2018-05-24T02:17:12.716Z,1013.67
2018-05-24T02:27:12.668Z,1013.74
2018-05-24T02:37:12.639Z,1013.74
2018-05-24T02:47:12.693Z,1013.6
2018-05-24T02:57:12.655Z,1013.56
2018-05-24T03:07:12.729Z,1013.56
2018-05-24T03:17:12.690Z,1013.58
2018-05-24T03:27:12.658Z,1013.63
2018-05-24T03:37:12.716Z,1013.61
2018-05-24T03:47:12.674Z,1013.57
2018-05-24T03:57:12.736Z,1013.45
2018-05-24T04:07:12.688Z,1013.46
2018-05-24T04:17:12.671Z,1013.37
2018-05-24T04:27:12.725Z,1013.41
2018-05-24T04:37:12.699Z,1013.29
2018-05-24T04:47:12.642Z,1013.43
2018-05-24T04:57:12.707Z,1013.51
2018-05-24T05:07:12.667Z,1013.44
2018-05-24T05:17:12.738Z,1013.45
2018-05-24T05:27:12.687Z,1013.51
2018-05-24T05:37:12.646Z,1013.41
2018-05-24T05:47:12.796Z,1013.38
2018-05-24T05:57:12.674Z,1013.34
2018-05-24T06:07:12.727Z,1013.37
2018-05-24T06:17:12.723Z,1013.37
2018-05-24T06:27:12.656Z,1013.37
2018-05-24T06:37:13.829Z,1013.46
2018-05-24T06:47:12.683Z,1013.48
2018-05-24T06:57:13.695Z,1013.49
2018-05-24T07:07:12.744Z,1013.52
2018-05-24T07:17:12.700Z,1013.55
2018-05-24T07:27:12.765Z,1013.53
2018-05-24T07:37:12.711Z,1013.29
2018-05-24T07:47:19.440Z,1013.1
2018-05-24T07:57:13.162Z,1013.11
2018-05-24T08:07:12.705Z,1013.02
2018-05-24T08:17:12.763Z,1013.03
2018-05-24T08:27:12.712Z,1013
2018-05-24T08:37:12.816Z,1012.94
2018-05-24T08:47:12.813Z,1012.98
2018-05-24T08:57:12.737Z,1012.94
2018-05-24T09:07:13.063Z,1012.84
2018-05-24T09:17:12.726Z,1012.91
2018-05-24T09:27:12.775Z,1012.92
2018-05-24T09:37:14.127Z,1012.99
2018-05-24T09:47:12.695Z,1012.89
2018-05-24T09:57:12.923Z,1012.7
2018-05-24T10:07:17.385Z,1012.71
2018-05-24T10:17:12.768Z,1012.61
2018-05-24T10:27:12.676Z,1012.61
2018-05-24T10:37:12.763Z,1012.63
2018-05-24T10:47:12.698Z,1012.7
2018-05-24T10:57:12.730Z,1012.65
2018-05-24T11:07:13.125Z,1012.7
2018-05-24T11:17:12.774Z,1012.7
2018-05-24T11:27:12.711Z,1012.45
2018-05-24T11:37:12.896Z,1012.52
2018-05-24T11:47:12.964Z,1012.48
2018-05-24T11:57:12.936Z,1012.49
2018-05-24T12:07:12.761Z,1012.55
2018-05-24T12:17:12.720Z,1012.51
2018-05-24T12:27:12.765Z,1012.42
2018-05-24T12:37:12.870Z,1012.38
2018-05-24T12:47:12.722Z,1012.35
2018-05-24T12:57:12.721Z,1012.47
2018-05-24T13:07:12.792Z,1012.33
2018-05-24T13:17:12.816Z,1012.38
2018-05-24T13:27:12.782Z,1012.26
2018-05-24T13:37:12.884Z,1012.23
2018-05-24T13:47:13.847Z,1012.15
2018-05-24T13:57:12.812Z,1012.12
2018-05-24T14:07:13.799Z,1012.18
2018-05-24T14:17:12.825Z,1012.04
2018-05-24T14:27:12.780Z,1011.96
2018-05-24T14:37:12.958Z,1011.87
2018-05-24T14:47:12.762Z,1011.8
2018-05-24T14:57:12.981Z,1011.65
2018-05-24T15:07:12.839Z,1011.6
2018-05-24T15:17:12.755Z,1011.61
2018-05-24T15:27:12.846Z,1011.46
2018-05-24T15:37:12.800Z,1011.43
2018-05-24T15:47:12.822Z,1011.41
2018-05-24T15:57:12.851Z,1011.42
2018-05-24T16:07:12.880Z,1011.33
2018-05-24T16:17:12.803Z,1011.14
2018-05-24T16:27:12.845Z,1011.01
2018-05-24T16:37:12.825Z,1010.96
2018-05-24T16:47:12.854Z,1010.95
2018-05-24T16:57:12.813Z,1010.91
2018-05-24T17:07:12.870Z,1010.85
2018-05-24T17:17:13.149Z,1010.9
2018-05-24T17:27:12.848Z,1010.89
2018-05-24T17:37:12.813Z,1010.92
2018-05-24T17:47:12.875Z,1010.93
2018-05-24T17:57:12.920Z,1010.94
2018-05-24T18:07:12.860Z,1011
2018-05-24T18:17:12.849Z,1010.93
2018-05-24T18:27:12.832Z,1010.96
2018-05-24T18:37:12.876Z,1010.97
2018-05-24T18:47:12.816Z,1011.11
2018-05-24T18:57:12.806Z,1011.26
2018-05-24T19:07:12.852Z,1011.27
2018-05-24T19:17:12.866Z,1011.32
2018-05-24T19:27:12.811Z,1011.26
2018-05-24T19:37:12.873Z,1011.35
2018-05-24T19:47:12.861Z,1011.48
2018-05-24T19:57:12.911Z,1011.55
2018-05-24T20:07:12.845Z,1011.68
2018-05-24T20:17:19.567Z,1011.6
2018-05-24T20:27:13.224Z,1011.63
2018-05-24T20:37:12.813Z,1011.61
2018-05-24T20:47:12.909Z,1011.57
2018-05-24T20:57:12.959Z,1011.52
2018-05-24T21:07:12.884Z,1011.62
2018-05-24T21:17:12.850Z,1011.64
2018-05-24T21:27:12.969Z,1011.58
2018-05-24T21:37:12.896Z,1011.5
2018-05-24T21:47:12.855Z,1011.44
2018-05-24T21:57:12.895Z,1011.33
2018-05-24T22:07:13.008Z,1011.37
2018-05-24T22:17:12.922Z,1011.38
2018-05-24T22:27:12.900Z,1011.47
2018-05-24T22:37:12.844Z,1011.43
2018-05-24T22:47:12.908Z,1011.44
2018-05-24T22:57:12.867Z,1011.29
2018-05-24T23:07:12.837Z,1011.28
2018-05-24T23:17:12.892Z,1011.2
2018-05-24T23:27:12.872Z,1011.15
2018-05-24T23:37:14.754Z,1011.18
2018-05-24T23:47:24.872Z,1011.2
